Terminal Aerodrome Forecast
Issued by NWS Cleveland, OH

Home | Current Version | Previous Version | Graphics & Text | Print | Product List | Glossary On
Versions: 1 2 3 4 5 6 7 8 9 10 11 12 13 14 15 16 17 18
413
FTUS41 KCLE 152332
TAFYNG
TAF
KYNG 152332Z 1600/1624 18012G20KT 6SM -SHRA BKN020
      TEMPO 1600/1602 5SM -SHRA BR OVC015
     FM160200 23012G20KT 5SM -DZ BR VCSH OVC007
      TEMPO 1603/1607 2SM -DZ BR
     FM161100 27015G25KT P6SM OVC015
     FM161900 30015G25KT P6SM OVC015=

USA.gov is the U.S. government's official web portal to all federal, state and local government web resources and services.